Time;durP1;ratioP1;P1;durP2;ratioP2;P2;SDS_P1;SDS_P2;PMS_P1;PMS_P2;Temp;Humidity;BMP_temperature;BMP_pressure;BME280_temperature;BME280_humidity;BME280_pressure;Samples;Min_cycle;Max_cycle;Signal;HPM_P1;HPM_P2
2021/12/18 00:00:12;;;;;;;;;36.50;26.00;;;;;8.98;68.19;103190.66;4981961;28;45367;-55
2021/12/18 00:02:38;;;;;;;;;31.50;26.50;;;;;8.98;68.09;103196.00;4982052;28;45362;-51
2021/12/18 00:05:04;;;;;;;;;29.00;26.50;;;;;9.04;68.44;103201.34;4982382;28;45456;-54
2021/12/18 00:07:29;;;;;;;;;23.50;19.75;;;;;8.98;68.49;103196.91;4981900;28;45459;-51
2021/12/18 00:09:54;;;;;;;;;32.50;28.00;;;;;8.95;67.92;103199.56;4981557;28;46309;-53
2021/12/18 00:12:20;;;;;;;;;31.25;27.50;;;;;8.94;68.38;103203.13;4981921;28;45334;-56
2021/12/18 00:14:45;;;;;;;;;27.75;21.75;;;;;8.95;68.69;103191.56;4981653;28;45236;-55
2021/12/18 00:17:10;;;;;;;;;30.00;22.50;;;;;8.99;68.25;103203.16;4981843;28;45283;-53
2021/12/18 00:19:36;;;;;;;;;28.75;25.75;;;;;8.91;68.49;103189.78;4981803;28;46250;-50
2021/12/18 00:22:02;;;;;;;;;30.75;23.25;;;;;8.78;68.74;103177.28;4981744;28;45428;-53
2021/12/18 00:24:27;;;;;;;;;32.25;24.75;;;;;8.90;68.65;103193.34;4982023;28;45492;-52
2021/12/18 00:26:53;;;;;;;;;30.00;25.75;;;;;8.89;68.96;103185.31;4981595;28;45521;-53
2021/12/18 00:29:19;;;;;;;;;25.50;23.75;;;;;8.87;68.77;103187.97;4981564;28;46621;-53
2021/12/18 05:33:14;;;;;;;;;34.75;24.25;;;;;8.52;68.00;103179.03;4978831;28;45321;-54
2021/12/18 05:35:40;;;;;;;;;35.00;23.50;;;;;8.48;67.66;103177.25;4980935;28;45798;-54
2021/12/18 05:38:05;;;;;;;;;31.00;25.00;;;;;8.47;67.92;103175.47;4980512;28;45335;-55
2021/12/18 05:40:32;;;;;;;;;23.75;23.25;;;;;8.60;67.66;103195.97;4980055;28;46681;-56
2021/12/18 05:42:58;;;;;;;;;30.25;25.00;;;;;8.56;68.06;103188.84;4980418;28;45479;-54
2021/12/18 05:45:23;;;;;;;;;30.50;26.25;;;;;8.56;67.26;103183.50;4979513;28;45355;-55
2021/12/18 05:47:49;;;;;;;;;31.25;24.00;;;;;8.61;67.61;103196.00;4980540;28;45445;-53
2021/12/18 05:50:17;;;;;;;;;28.75;21.50;;;;;8.56;67.56;103180.84;4979351;28;47645;-56
2021/12/18 05:52:45;;;;;;;;;29.25;27.50;;;;;8.60;67.43;103183.50;4980542;28;45386;-52
2021/12/18 05:55:12;;;;;;;;;31.00;25.75;;;;;8.56;67.33;103172.81;4980706;28;45235;-54
2021/12/18 05:57:37;;;;;;;;;38.00;27.25;;;;;8.54;67.23;103170.13;4980465;28;45366;-53
2021/12/18 06:00:07;;;;;;;;;26.00;20.75;;;;;8.62;67.24;103183.50;4980203;28;45287;-52
2021/12/18 06:02:33;;;;;;;;;27.25;24.50;;;;;8.32;67.53;103130.91;4980385;28;45397;-54
2021/12/18 06:04:58;;;;;;;;;27.50;26.00;;;;;8.51;67.18;103162.09;4980748;28;45338;-53
2021/12/18 06:07:32;;;;;;;;;29.50;23.50;;;;;8.60;67.51;103166.56;4980227;28;45385;-54
2021/12/18 06:09:59;;;;;;;;;28.50;25.50;;;;;8.68;67.22;103191.53;4980428;28;47304;-55
2021/12/18 06:12:25;;;;;;;;;24.50;22.75;;;;;8.60;67.21;103172.81;4980246;28;45429;-53
2021/12/18 06:14:51;;;;;;;;;26.50;26.00;;;;;8.63;66.84;103177.28;4980163;28;45266;-55
2021/12/18 06:17:16;;;;;;;;;25.50;22.25;;;;;8.61;67.11;103184.41;4980046;28;45448;-51
2021/12/18 06:19:42;;;;;;;;;25.75;20.75;;;;;8.58;67.02;103179.06;4980171;28;46285;-53
2021/12/18 06:22:07;;;;;;;;;34.75;23.25;;;;;8.54;67.20;103177.25;4980092;28;45514;-54
2021/12/18 06:24:33;;;;;;;;;29.50;24.00;;;;;8.48;66.61;103175.47;4980393;28;45397;-54
2021/12/18 06:26:58;;;;;;;;;25.00;20.75;;;;;8.46;67.30;103182.59;4979990;28;45349;-51
2021/12/18 06:29:23;;;;;;;;;29.00;27.25;;;;;8.43;67.31;103179.03;4979997;28;45356;-53
2021/12/18 06:31:49;;;;;;;;;31.75;25.50;;;;;8.39;67.29;103178.13;4979699;28;45474;-54
2021/12/18 06:34:16;;;;;;;;;28.75;26.25;;;;;8.31;67.08;103169.22;4980271;28;45345;-53
2021/12/18 06:36:41;;;;;;;;;31.75;24.75;;;;;8.32;67.28;103168.34;4979577;28;46046;-53
2021/12/18 06:39:07;;;;;;;;;29.00;24.00;;;;;8.34;67.44;103178.13;4979675;28;47033;-54
2021/12/18 06:41:32;;;;;;;;;24.00;21.75;;;;;8.35;67.84;103184.34;4979877;28;45310;-55
2021/12/18 06:43:58;;;;;;;;;31.75;25.25;;;;;8.32;67.55;103184.38;4979831;28;45267;-54
2021/12/18 06:46:23;;;;;;;;;33.00;25.25;;;;;8.32;67.85;103184.38;4979537;28;45902;-51
2021/12/18 06:48:49;;;;;;;;;28.25;25.50;;;;;8.19;68.04;103174.47;4979721;28;46130;-52
2021/12/18 06:51:19;;;;;;;;;18.75;13.75;;;;;8.28;67.90;103187.88;4978984;28;45210;-53
2021/12/18 06:53:44;;;;;;;;;25.75;22.00;;;;;8.26;68.49;103190.53;4979793;28;45451;-54
2021/12/18 06:56:10;;;;;;;;;27.75;22.25;;;;;8.28;67.93;103185.19;4979697;28;45427;-53
2021/12/18 06:58:35;;;;;;;;;24.00;23.25;;;;;8.29;67.89;103192.34;4978101;28;47075;-53
2021/12/18 07:01:00;;;;;;;;;29.00;24.25;;;;;8.26;68.11;103194.97;4979384;28;45341;-53
2021/12/18 07:03:26;;;;;;;;;31.00;26.25;;;;;8.17;68.11;103170.91;4978483;28;45544;-52
2021/12/18 07:05:51;;;;;;;;;31.50;23.75;;;;;8.30;68.29;103178.09;4979554;28;45474;-53
2021/12/18 07:08:17;;;;;;;;;24.25;22.00;;;;;8.32;68.19;103190.59;4979573;28;45366;-52
2021/12/18 07:10:44;;;;;;;;;24.50;23.50;;;;;8.28;68.75;103178.06;4979530;28;45392;-52
2021/12/18 07:13:09;;;;;;;;;28.75;27.00;;;;;8.30;68.31;103187.00;4979524;28;45282;-54
2021/12/18 07:15:35;;;;;;;;;22.50;21.50;;;;;8.33;68.13;103203.09;4979362;28;45291;-53
2021/12/18 07:18:00;;;;;;;;;35.75;30.50;;;;;8.32;68.05;103200.41;4979421;28;46369;-55
2021/12/18 07:20:27;;;;;;;;;23.50;21.50;;;;;8.15;68.11;103186.06;4979315;28;47371;-54
2021/12/18 07:22:53;;;;;;;;;24.75;19.00;;;;;8.27;68.25;103205.69;4979618;28;45426;-53
2021/12/18 07:25:19;;;;;;;;;31.00;22.25;;;;;8.07;68.23;103167.34;4979406;28;45404;-50
2021/12/18 07:27:45;;;;;;;;;31.00;22.75;;;;;8.24;68.89;103208.38;4978997;28;45421;-54
2021/12/18 07:30:12;;;;;;;;;24.50;23.50;;;;;8.14;68.38;103197.63;4979155;28;45330;-54
2021/12/18 07:32:38;;;;;;;;;29.50;21.25;;;;;8.20;68.39;103211.91;4979300;28;45366;-54
2021/12/18 07:35:05;;;;;;;;;22.00;19.00;;;;;8.13;68.19;103203.88;4979070;28;45616;-54
2021/12/18 07:37:30;;;;;;;;;22.25;19.75;;;;;8.17;68.45;103214.56;4977957;28;46997;-54
2021/12/18 07:39:56;;;;;;;;;25.50;23.50;;;;;8.16;68.39;103217.25;4978849;28;45239;-51
2021/12/18 07:42:21;;;;;;;;;24.00;23.00;;;;;8.15;68.06;103224.38;4979349;28;45314;-53
2021/12/18 07:44:47;;;;;;;;;27.00;23.25;;;;;8.13;68.05;103212.78;4978719;28;45307;-52
2021/12/18 07:47:12;;;;;;;;;23.50;22.75;;;;;8.15;68.30;103218.13;4979097;28;45337;-52
2021/12/18 07:49:38;;;;;;;;;33.75;28.50;;;;;8.12;68.54;103219.00;4971293;28;45591;-52
2021/12/18 07:52:04;;;;;;;;;24.50;20.00;;;;;8.14;68.54;103221.69;4976436;28;45453;-55
2021/12/18 07:54:30;;;;;;;;;23.75;22.00;;;;;8.16;68.64;103222.59;4976249;28;45377;-53
2021/12/18 07:56:56;;;;;;;;;25.50;22.75;;;;;8.15;68.44;103220.81;4974703;28;47488;-55
2021/12/18 07:59:21;;;;;;;;;27.00;24.25;;;;;8.10;68.05;103214.53;4976705;28;45540;-59
2021/12/18 08:01:46;;;;;;;;;33.00;26.00;;;;;8.14;68.54;103225.25;4978119;28;45460;-58
2021/12/18 08:04:12;;;;;;;;;26.75;24.25;;;;;8.07;68.22;103207.41;4980737;28;45440;-57
2021/12/18 08:06:37;;;;;;;;;26.00;24.75;;;;;8.11;68.55;103213.66;4982228;28;45390;-57
2021/12/18 08:09:03;;;;;;;;;30.50;20.50;;;;;8.13;68.38;103207.44;4982018;28;45297;-57
2021/12/18 08:11:28;;;;;;;;;22.25;22.25;;;;;8.09;67.90;103208.28;4980889;28;45436;-57
2021/12/18 08:13:53;;;;;;;;;29.00;23.25;;;;;8.14;67.89;103213.66;4981794;28;45330;-57
2021/12/18 08:16:19;;;;;;;;;31.00;22.50;;;;;8.19;68.01;103212.78;4981906;28;45323;-58
2021/12/18 08:18:44;;;;;;;;;24.25;20.00;;;;;8.12;67.32;103202.97;4981938;28;45260;-57
2021/12/18 08:21:09;;;;;;;;;33.50;26.75;;;;;8.14;67.67;103209.22;4982257;28;45310;-58
2021/12/18 08:23:35;;;;;;;;;26.50;21.50;;;;;8.12;67.60;103216.31;4981852;28;45387;-58
2021/12/18 08:26:00;;;;;;;;;26.00;22.75;;;;;8.15;67.55;103213.69;4982012;28;45187;-55
2021/12/18 08:28:25;;;;;;;;;30.75;23.25;;;;;8.00;67.17;103194.91;4981480;28;45453;-58
2021/12/18 08:30:51;;;;;;;;;33.75;21.00;;;;;8.11;67.33;103222.56;4982121;28;45250;-58
2021/12/18 08:33:16;;;;;;;;;28.50;23.75;;;;;8.11;67.75;103221.66;4981320;28;45573;-52
2021/12/18 08:35:41;;;;;;;;;26.00;24.00;;;;;8.18;67.45;103237.72;4981777;28;45245;-58
2021/12/18 08:38:07;;;;;;;;;24.25;21.00;;;;;8.20;67.74;103230.59;4980395;28;45312;-59
2021/12/18 08:40:34;;;;;;;;;25.50;21.25;;;;;8.20;67.57;103235.06;4978062;28;45464;-58
2021/12/18 08:43:00;;;;;;;;;31.75;29.25;;;;;8.21;67.07;103232.41;4979801;28;45349;-59
2021/12/18 08:45:25;;;;;;;;;29.75;24.00;;;;;8.12;67.22;103207.41;4981612;28;45409;-58
2021/12/18 08:47:52;;;;;;;;;29.25;24.25;;;;;8.25;66.69;103225.28;4981370;28;45413;-56
2021/12/18 08:50:19;;;;;;;;;25.50;23.50;;;;;8.23;67.18;103232.41;4981909;28;45366;-58
2021/12/18 08:52:46;;;;;;;;;28.50;26.75;;;;;8.19;67.17;103223.47;4981496;28;45628;-57
2021/12/18 08:55:12;;;;;;;;;23.00;21.50;;;;;8.24;66.97;103223.50;4981415;28;46364;-58
2021/12/18 08:57:38;;;;;;;;;29.50;25.00;;;;;8.23;67.22;103225.28;4981207;28;45385;-57
2021/12/18 09:00:05;;;;;;;;;32.75;19.75;;;;;8.22;66.93;103218.16;4981548;28;45417;-57
2021/12/18 09:02:31;;;;;;;;;23.75;19.25;;;;;8.27;66.73;103236.84;4981075;28;45413;-56
2021/12/18 09:04:56;;;;;;;;;27.75;19.50;;;;;8.27;66.63;103226.16;4981345;28;45354;-57
2021/12/18 09:07:22;;;;;;;;;25.00;21.00;;;;;8.26;67.02;103227.06;4981307;28;45302;-59
2021/12/18 09:09:48;;;;;;;;;17.00;17.00;;;;;8.29;66.94;103222.63;4981621;28;45330;-57
2021/12/18 09:12:13;;;;;;;;;23.00;19.75;;;;;8.34;66.97;103225.31;4981111;28;45354;-57
2021/12/18 09:14:39;;;;;;;;;22.50;19.75;;;;;8.31;66.45;103223.56;4980085;28;46354;-57
2021/12/18 09:17:05;;;;;;;;;24.50;21.00;;;;;8.33;66.90;103216.44;4979807;28;45185;-57
2021/12/18 09:19:30;;;;;;;;;30.25;24.50;;;;;8.38;66.46;103219.13;4981297;28;45337;-58
2021/12/18 09:21:56;;;;;;;;;25.25;20.50;;;;;8.41;66.88;103219.13;4980991;28;45405;-57
2021/12/18 09:24:21;;;;;;;;;25.50;19.00;;;;;8.47;66.00;103220.91;4981092;28;46210;-59
2021/12/18 09:26:48;;;;;;;;;32.25;24.00;;;;;8.45;65.89;103206.66;4980899;28;45273;-58
2021/12/18 09:29:13;;;;;;;;;31.25;26.25;;;;;8.44;66.22;103199.53;4980970;28;45425;-57
2021/12/18 09:31:38;;;;;;;;;27.75;22.50;;;;;8.49;66.22;103198.66;4980732;28;45535;-58
2021/12/18 09:34:04;;;;;;;;;28.50;21.00;;;;;8.53;66.03;103196.88;4980855;28;45850;-57
2021/12/18 09:36:29;;;;;;;;;27.25;23.75;;;;;8.55;65.82;103205.78;4980780;28;45298;-58
2021/12/18 09:38:55;;;;;;;;;26.25;17.75;;;;;8.55;65.29;103203.13;4981019;28;45477;-57
2021/12/18 09:41:21;;;;;;;;;27.00;24.00;;;;;8.52;65.27;103203.09;4980644;28;45604;-58
2021/12/18 09:43:47;;;;;;;;;29.25;23.50;;;;;8.49;65.79;103204.00;4980503;28;46985;-58
2021/12/18 09:46:14;;;;;;;;;23.25;18.50;;;;;8.46;65.43;103198.63;4980512;28;45391;-56
2021/12/18 09:48:41;;;;;;;;;28.00;24.75;;;;;8.52;66.02;103206.66;4980738;28;45342;-58
2021/12/18 09:51:13;;;;;;;;;29.75;26.50;;;;;8.51;65.88;103198.63;4980489;28;45586;-59
2021/12/18 09:53:39;;;;;;;;;32.00;24.75;;;;;8.59;65.47;103207.59;4980630;28;46603;-58
2021/12/18 09:56:06;;;;;;;;;24.00;21.75;;;;;8.54;65.15;103199.53;4980420;28;45346;-57
2021/12/18 09:58:32;;;;;;;;;26.50;20.00;;;;;8.51;65.59;103183.50;4980522;28;45308;-57
2021/12/18 10:00:58;;;;;;;;;25.00;19.25;;;;;8.62;65.63;103195.09;4980184;28;45453;-57
2021/12/18 10:03:43;;;;;;;;;23.25;20.25;;;;;8.69;65.01;103201.34;4980397;28;45335;-58
2021/12/18 10:06:28;;;;;;;;;24.50;18.75;;;;;8.72;64.94;103204.94;4980170;28;45357;-57
2021/12/18 10:08:54;;;;;;;;;17.50;14.00;;;;;8.70;64.61;103193.31;4980609;28;46104;-57
2021/12/18 10:11:19;;;;;;;;;23.00;18.50;;;;;8.74;64.76;103191.56;4980312;28;45607;-58
2021/12/18 10:14:01;;;;;;;;;23.00;18.75;;;;;8.72;64.76;103188.00;4979962;28;46512;-57
2021/12/18 10:16:28;;;;;;;;;22.50;19.00;;;;;8.80;64.63;103188.00;4980032;28;45243;-57
2021/12/18 10:18:56;;;;;;;;;16.25;14.50;;;;;8.84;64.23;103189.78;4980121;28;45641;-57
2021/12/18 10:21:24;;;;;;;;;17.50;15.00;;;;;8.90;64.24;103188.00;4980195;28;45393;-57
2021/12/18 10:23:51;;;;;;;;;25.75;20.75;;;;;8.89;64.10;103191.56;4979953;28;45343;-57
2021/12/18 10:26:39;;;;;;;;;23.00;20.25;;;;;8.95;64.06;103191.56;4979891;28;45416;-56
2021/12/18 10:29:30;;;;;;;;;18.25;15.50;;;;;8.96;63.29;103193.34;4979897;28;45359;-56
2021/12/18 10:31:56;;;;;;;;;30.75;22.75;;;;;8.94;63.94;103176.38;4979598;28;45372;-58
2021/12/18 10:34:23;;;;;;;;;20.00;19.00;;;;;9.03;63.22;103180.84;4979789;28;45407;-58
2021/12/18 10:37:24;;;;;;;;;23.50;23.50;;;;;9.09;63.56;103183.53;4976823;28;45443;-58
2021/12/18 10:39:49;;;;;;;;;28.25;22.75;;;;;9.16;63.64;103176.38;4979775;28;45318;-58
2021/12/18 10:42:22;;;;;;;;;22.25;17.50;;;;;9.24;63.74;103180.84;4979970;28;45367;-58
2021/12/18 10:45:14;;;;;;;;;24.25;24.25;;;;;9.30;62.98;103171.91;4979425;28;45334;-55
2021/12/18 10:47:50;;;;;;;;;26.00;21.50;;;;;9.41;62.28;103180.81;4977196;28;45397;-60
2021/12/18 10:50:30;;;;;;;;;20.75;17.75;;;;;9.48;62.30;103182.56;4980091;28;45266;-61
2021/12/18 10:53:06;;;;;;;;;25.75;22.00;;;;;9.54;62.04;103170.94;4978233;28;45389;-60
2021/12/18 10:55:43;;;;;;;;;30.00;22.25;;;;;9.64;61.71;103170.03;4977781;28;45633;-60
2021/12/18 10:58:12;;;;;;;;;24.75;21.75;;;;;9.69;61.85;103163.78;4979316;28;45365;-60
2021/12/18 11:00:50;;;;;;;;;22.25;18.75;;;;;9.77;61.99;103166.41;4979444;28;45354;-60
2021/12/18 11:03:19;;;;;;;;;20.00;18.75;;;;;9.83;61.28;103161.91;4979656;28;45247;-60
2021/12/18 11:06:04;;;;;;;;;21.00;17.75;;;;;9.86;61.48;103155.66;4979260;28;45397;-60
2021/12/18 11:08:30;;;;;;;;;29.25;24.00;;;;;9.87;60.81;103152.94;4979555;28;45436;-60
2021/12/18 11:13:51;;;;;;;;;17.50;12.00;;;;;9.96;60.94;103151.13;4979073;28;45417;-60
2021/12/18 11:16:18;;;;;;;;;25.50;21.00;;;;;10.02;61.43;103145.75;4979410;28;45260;-60
2021/12/18 11:18:46;;;;;;;;;25.50;19.00;;;;;10.02;60.29;103146.66;4979074;28;45488;-60
2021/12/18 11:21:12;;;;;;;;;34.00;23.50;;;;;10.06;61.19;103143.03;4979489;28;45638;-60
2021/12/18 11:23:48;;;;;;;;;25.50;20.50;;;;;10.07;60.55;103144.81;4979327;28;45284;-60
2021/12/18 11:26:14;;;;;;;;;24.00;20.25;;;;;10.09;60.32;103151.06;4978841;28;46363;-60
2021/12/18 11:28:44;;;;;;;;;30.00;25.00;;;;;10.10;60.43;103151.97;4972511;28;45681;-60
2021/12/18 11:31:11;;;;;;;;;21.00;18.50;;;;;10.12;60.78;103145.66;4977234;28;45462;-60
2021/12/18 11:33:38;;;;;;;;;25.25;21.25;;;;;10.17;61.03;103151.94;4977064;28;45417;-60
2021/12/18 11:36:05;;;;;;;;;27.75;23.75;;;;;10.19;60.65;103152.84;4977206;28;46162;-59
2021/12/18 11:38:33;;;;;;;;;27.50;23.75;;;;;10.19;61.08;103127.81;4978265;28;45358;-60
2021/12/18 11:40:59;;;;;;;;;23.00;21.25;;;;;10.26;60.77;103126.88;4979627;28;45385;-60
2021/12/18 11:43:36;;;;;;;;;27.25;19.25;;;;;10.31;60.41;103127.72;4979901;28;45587;-60
2021/12/18 11:46:32;;;;;;;;;23.00;22.50;;;;;10.34;59.80;103138.44;4980410;28;46012;-59
2021/12/18 11:49:03;;;;;;;;;22.50;22.00;;;;;10.37;60.34;103130.38;4970070;28;45302;-59
2021/12/18 11:51:29;;;;;;;;;21.75;20.50;;;;;10.37;60.07;103121.44;4980697;28;45417;-59
2021/12/18 11:53:55;;;;;;;;;22.75;20.75;;;;;10.38;60.25;103121.41;4979850;28;45333;-60
2021/12/18 11:56:21;;;;;;;;;28.00;20.25;;;;;10.40;60.31;103119.63;4980667;28;46231;-60
2021/12/18 11:58:48;;;;;;;;;20.50;18.25;;;;;10.41;60.34;103126.75;4979650;28;45453;-55
2021/12/18 12:01:25;;;;;;;;;25.00;21.25;;;;;10.42;60.08;103115.13;4980019;28;45432;-57
2021/12/18 12:03:50;;;;;;;;;23.50;19.50;;;;;10.45;60.71;103108.88;4978594;28;45377;-53
2021/12/18 12:06:18;;;;;;;;;25.75;24.00;;;;;10.47;60.18;103115.97;4979351;28;46641;-57
2021/12/18 12:08:44;;;;;;;;;24.00;22.75;;;;;10.44;60.20;103107.97;4978794;28;45681;-56
2021/12/18 12:11:15;;;;;;;;;29.75;24.50;;;;;10.43;60.50;103102.63;4979253;28;45327;-55
2021/12/18 12:13:53;;;;;;;;;31.25;24.00;;;;;10.46;60.18;103102.63;4979470;28;45377;-57
2021/12/18 12:16:18;;;;;;;;;27.25;23.00;;;;;10.42;60.04;103085.63;4978747;28;47498;-53
2021/12/18 12:19:04;;;;;;;;;25.50;21.00;;;;;10.46;60.00;103098.09;4979838;28;45409;-55
2021/12/18 12:21:48;;;;;;;;;19.00;17.25;;;;;10.46;60.11;103091.88;4980389;28;45530;-55
2021/12/18 12:24:19;;;;;;;;;23.00;23.00;;;;;10.49;60.27;103082.00;4979699;28;45426;-55
2021/12/18 12:26:46;;;;;;;;;26.00;23.50;;;;;10.48;60.24;103076.66;4980000;28;47083;-56
2021/12/18 12:29:14;;;;;;;;;23.75;21.00;;;;;10.55;60.34;103083.72;4978919;28;45397;-54
2021/12/18 12:32:01;;;;;;;;;23.25;18.00;;;;;10.52;59.83;103076.63;4979712;28;45243;-56
2021/12/18 12:34:33;;;;;;;;;30.75;24.00;;;;;10.55;59.98;103087.31;4970493;28;45503;-58
2021/12/18 12:37:24;;;;;;;;;23.50;23.50;;;;;10.55;60.09;103079.25;4979587;28;46645;-55
2021/12/18 12:39:56;;;;;;;;;29.75;19.50;;;;;10.56;60.04;103081.03;4979450;28;45354;-55
2021/12/18 12:42:21;;;;;;;;;27.50;19.25;;;;;10.56;59.74;103078.34;4977675;28;45347;-55
2021/12/18 12:44:52;;;;;;;;;24.50;19.25;;;;;10.55;60.11;103070.31;4977916;28;45340;-54
2021/12/18 12:47:22;;;;;;;;;26.75;21.75;;;;;10.55;60.08;103062.28;4979181;28;46971;-56
2021/12/18 12:49:54;;;;;;;;;26.75;23.25;;;;;10.56;60.04;103073.00;4978110;28;45297;-53
2021/12/18 12:52:24;;;;;;;;;23.25;23.00;;;;;10.66;59.70;103076.50;4979447;28;45495;-54
2021/12/18 12:55:04;;;;;;;;;23.50;21.50;;;;;10.68;60.03;103069.31;4979412;28;45493;-59
2021/12/18 12:57:30;;;;;;;;;27.25;23.50;;;;;10.71;60.12;103060.38;4978774;28;46243;-58
2021/12/18 12:59:58;;;;;;;;;23.00;19.50;;;;;10.72;59.89;103060.31;4979363;28;45378;-58
2021/12/18 13:02:29;;;;;;;;;26.25;21.50;;;;;10.75;60.19;103054.94;4979274;28;45367;-57
2021/12/18 13:05:08;;;;;;;;;19.75;19.25;;;;;10.77;59.69;103046.88;4979333;28;45492;-58
2021/12/18 13:07:34;;;;;;;;;30.75;21.75;;;;;10.68;59.51;103030.88;4978903;28;45244;-57
2021/12/18 13:09:59;;;;;;;;;26.25;23.50;;;;;10.81;59.68;103044.13;4978362;28;45445;-59
2021/12/18 13:12:25;;;;;;;;;28.75;24.50;;;;;10.84;59.38;103032.50;4979613;28;45488;-59
2021/12/18 13:14:52;;;;;;;;;24.25;22.25;;;;;10.87;59.45;103024.44;4977736;28;45425;-59
2021/12/18 13:17:23;;;;;;;;;26.00;22.75;;;;;10.93;59.30;103029.72;4979297;28;45949;-55
2021/12/18 13:19:53;;;;;;;;;28.00;22.50;;;;;10.93;59.13;103030.59;4979988;28;45481;-60
2021/12/18 13:22:18;;;;;;;;;24.00;20.50;;;;;10.90;59.36;103027.06;4979630;28;45358;-59
2021/12/18 13:24:59;;;;;;;;;25.00;19.00;;;;;10.87;59.19;103024.44;4980072;28;45980;-57
2021/12/18 13:27:24;;;;;;;;;21.75;20.50;;;;;10.91;59.44;103029.72;4979456;28;45452;-57
2021/12/18 13:30:12;;;;;;;;;16.25;14.50;;;;;10.91;59.57;103019.00;4979375;28;45539;-58
2021/12/18 13:33:00;;;;;;;;;22.25;19.50;;;;;10.93;59.09;103027.94;4979714;28;45365;-58
2021/12/18 13:35:28;;;;;;;;;34.00;25.25;;;;;10.94;58.92;103026.13;4979573;28;45626;-58
2021/12/18 13:37:58;;;;;;;;;27.50;23.50;;;;;10.93;59.11;103027.03;4980610;28;45576;-58
2021/12/18 13:40:24;;;;;;;;;22.00;18.00;;;;;10.90;59.68;103016.31;4980371;28;45390;-59
2021/12/18 13:43:06;;;;;;;;;21.25;18.50;;;;;10.94;59.16;103018.09;4980449;28;45163;-59
2021/12/18 13:45:33;;;;;;;;;26.75;20.00;;;;;10.92;59.64;103018.09;4980705;28;46205;-58
2021/12/18 13:48:04;;;;;;;;;22.50;19.25;;;;;10.89;59.30;103010.06;4980516;28;46538;-58
2021/12/18 13:50:30;;;;;;;;;27.50;24.25;;;;;10.92;59.35;103012.72;4980404;28;45460;-58
2021/12/18 13:53:02;;;;;;;;;19.75;18.00;;;;;10.89;59.34;103009.16;4980250;28;45353;-58
2021/12/18 13:55:34;;;;;;;;;30.25;25.75;;;;;10.84;59.84;102998.50;4980548;28;46161;-58
2021/12/18 13:58:01;;;;;;;;;28.75;22.75;;;;;10.76;60.02;102976.22;4979995;28;46041;-57
2021/12/18 14:00:27;;;;;;;;;22.25;21.00;;;;;10.92;59.14;102996.63;4979928;28;45299;-55
2021/12/18 14:02:52;;;;;;;;;26.75;21.25;;;;;10.95;59.55;103007.34;4980648;28;45343;-53
2021/12/18 14:05:18;;;;;;;;;28.00;22.25;;;;;10.94;59.15;103002.88;4980622;28;45310;-56
2021/12/18 14:07:44;;;;;;;;;20.25;16.00;;;;;10.99;59.72;103000.13;4980254;28;45996;-52
2021/12/18 14:10:10;;;;;;;;;26.25;19.00;;;;;11.05;59.48;103001.88;4980279;28;45457;-53
2021/12/18 14:12:36;;;;;;;;;18.25;17.00;;;;;11.06;58.97;103007.19;4978911;28;45342;-55
2021/12/18 14:15:03;;;;;;;;;29.00;23.75;;;;;11.10;59.09;102998.19;4978785;28;45395;-55
2021/12/18 14:17:31;;;;;;;;;31.75;19.50;;;;;11.34;59.16;103007.75;4980148;28;45492;-55
2021/12/18 14:20:13;;;;;;;;;22.75;21.00;;;;;11.84;57.39;103001.69;4979914;28;45734;-56
2021/12/18 14:22:40;;;;;;;;;25.50;20.50;;;;;12.33;55.97;102993.72;4980201;28;45377;-56
2021/12/18 14:25:11;;;;;;;;;22.50;20.25;;;;;12.93;54.54;103006.09;4978195;28;46013;-55
2021/12/18 14:27:45;;;;;;;;;17.25;16.50;;;;;13.36;53.22;102985.44;4979380;28;47189;-53
2021/12/18 14:30:18;;;;;;;;;24.75;23.00;;;;;13.79;52.26;103004.22;4979882;28;45554;-51
2021/12/18 14:32:44;;;;;;;;;20.75;17.75;;;;;13.96;51.56;102996.63;4978881;28;45402;-54
2021/12/18 14:35:12;;;;;;;;;17.75;17.75;;;;;14.23;50.96;103007.66;4977602;28;45433;-56
2021/12/18 14:37:50;;;;;;;;;25.00;19.75;;;;;14.20;50.25;102983.47;4974956;28;47293;-57
2021/12/18 14:40:21;;;;;;;;;21.75;18.25;;;;;14.44;49.88;103004.47;4977773;28;45504;-56
2021/12/18 14:42:58;;;;;;;;;21.50;19.25;;;;;14.64;49.80;103020.09;4978236;28;45328;-55
2021/12/18 14:45:28;;;;;;;;;22.00;19.00;;;;;14.54;49.99;103002.41;4978581;28;45629;-54
2021/12/18 14:47:57;;;;;;;;;18.75;18.00;;;;;14.41;50.24;103019.81;4978030;28;46137;-51
2021/12/18 14:50:26;;;;;;;;;26.25;21.00;;;;;14.19;49.91;103023.03;4978247;28;45539;-54
2021/12/18 14:53:09;;;;;;;;;22.50;18.75;;;;;13.97;50.71;103017.28;4976722;28;45349;-54
2021/12/18 14:55:40;;;;;;;;;24.75;20.75;;;;;13.79;51.32;103020.38;4977658;28;45371;-55
2021/12/18 14:58:20;;;;;;;;;22.75;19.50;;;;;13.60;51.94;103021.75;4977810;28;46280;-56
2021/12/18 15:00:53;;;;;;;;;24.50;18.00;;;;;13.34;52.18;103007.97;4977902;28;45445;-53
2021/12/18 15:03:46;;;;;;;;;23.75;20.00;;;;;13.19;52.32;103036.97;4978439;28;45347;-54
2021/12/18 15:06:16;;;;;;;;;19.00;14.75;;;;;12.96;52.90;103028.44;4973959;28;45405;-55
2021/12/18 15:09:03;;;;;;;;;25.50;20.25;;;;;12.81;53.62;103028.72;4978417;28;46263;-55
2021/12/18 15:11:29;;;;;;;;;22.25;19.00;;;;;12.67;53.55;103030.81;4978117;28;45408;-51
2021/12/18 15:14:07;;;;;;;;;20.50;19.25;;;;;12.53;54.06;103031.03;4977197;28;45417;-55
2021/12/18 15:16:42;;;;;;;;;19.25;16.75;;;;;12.39;54.54;103025.91;4977958;28;45384;-52
2021/12/18 15:19:12;;;;;;;;;20.00;17.50;;;;;12.31;54.62;103033.22;4977770;28;45393;-54
2021/12/18 15:21:41;;;;;;;;;18.00;16.75;;;;;12.13;54.37;103010.19;4977945;28;45339;-55
2021/12/18 15:24:08;;;;;;;;;21.25;17.75;;;;;12.13;54.69;103030.81;4977685;28;45306;-53
2021/12/18 15:26:34;;;;;;;;;17.00;15.25;;;;;12.02;55.12;103020.22;4977632;28;46162;-55
2021/12/18 15:29:00;;;;;;;;;19.75;17.25;;;;;11.97;55.07;103029.28;4977556;28;46275;-55
2021/12/18 15:31:26;;;;;;;;;14.00;11.25;;;;;11.89;55.58;103018.66;4938067;28;1136456;-53
2021/12/18 15:33:52;;;;;;;;;19.50;13.00;;;;;11.84;55.62;103031.25;4979055;28;45319;-54
2021/12/18 15:36:18;;;;;;;;;21.25;17.00;;;;;11.75;56.15;103023.31;4977450;28;46987;-56
2021/12/18 15:38:43;;;;;;;;;18.75;16.50;;;;;11.64;56.21;103022.56;4978824;28;46243;-54
2021/12/18 15:41:10;;;;;;;;;16.25;14.00;;;;;11.53;56.17;103005.69;4979076;28;45163;-53
2021/12/18 15:43:35;;;;;;;;;22.00;19.25;;;;;11.63;56.59;103026.16;4978927;28;45446;-56
2021/12/18 15:46:02;;;;;;;;;20.25;14.50;;;;;11.45;56.39;103005.81;4978910;28;45511;-54
2021/12/18 15:48:27;;;;;;;;;20.00;20.00;;;;;11.45;56.75;103005.81;4978866;28;45440;-54
2021/12/18 15:50:53;;;;;;;;;20.00;17.50;;;;;11.41;56.96;103004.06;4979000;28;45394;-56
2021/12/18 15:53:18;;;;;;;;;16.25;13.00;;;;;11.35;56.82;103001.47;4977645;28;45470;-54
2021/12/18 15:55:44;;;;;;;;;19.25;14.50;;;;;11.38;57.39;103018.44;4978779;28;45488;-52
2021/12/18 15:58:09;;;;;;;;;19.00;16.50;;;;;11.33;57.13;103016.69;4977270;28;47012;-55
2021/12/18 16:00:39;;;;;;;;;20.50;17.00;;;;;11.33;57.21;103019.38;4978745;28;45235;-53
2021/12/18 16:03:06;;;;;;;;;19.00;13.75;;;;;11.31;57.65;103019.41;4978218;28;45638;-63
2021/12/18 16:05:33;;;;;;;;;15.25;15.00;;;;;11.29;57.68;103012.28;4978641;28;45360;-62
2021/12/18 16:08:00;;;;;;;;;23.25;19.50;;;;;11.25;57.64;103002.47;4978556;28;47188;-63
2021/12/18 16:10:27;;;;;;;;;25.75;21.75;;;;;11.28;57.85;103023.94;4978618;28;45263;-63
2021/12/18 16:12:55;;;;;;;;;20.25;18.25;;;;;11.27;57.61;103023.03;4978488;28;45259;-57
2021/12/18 16:15:21;;;;;;;;;24.00;18.50;;;;;11.22;57.82;103024.91;4978592;28;45337;-56
2021/12/18 16:17:48;;;;;;;;;21.00;17.25;;;;;11.16;57.67;103024.06;4978460;28;45372;-56
2021/12/18 16:20:14;;;;;;;;;24.00;20.25;;;;;11.09;57.82;103028.63;4978498;28;45357;-56
2021/12/18 16:22:40;;;;;;;;;28.75;19.75;;;;;11.03;57.89;103028.72;4978555;28;45345;-55
2021/12/18 16:25:07;;;;;;;;;26.25;16.25;;;;;10.99;57.69;103025.16;4980781;28;45252;-57